createdAt,value
2019-01-09T00:00:53.879Z,98744.67
2019-01-09T00:03:57.322Z,98751.61
2019-01-09T00:07:00.758Z,98743.36
2019-01-09T00:10:04.265Z,98742.16
2019-01-09T00:13:07.772Z,98745.39
2019-01-09T00:16:11.316Z,98744.70
2019-01-09T00:19:14.823Z,98745.64
2019-01-09T00:22:18.268Z,98739.55
2019-01-09T00:25:21.821Z,98740.64
2019-01-09T00:28:25.332Z,98739.67
2019-01-09T00:31:28.899Z,98742.30
2019-01-09T00:34:32.537Z,98737.63
2019-01-09T00:37:38.080Z,98739.56
2019-01-09T00:40:41.616Z,98740.89
2019-01-09T00:43:46.108Z,98749.40
2019-01-09T00:46:49.604Z,98747.10
2019-01-09T00:49:53.109Z,98752.38
2019-01-09T00:52:56.607Z,98745.78
2019-01-09T00:56:00.108Z,98751.44
2019-01-09T00:59:03.625Z,98750.47
2019-01-09T01:02:39.574Z,98748.68
2019-01-09T01:06:20.715Z,98744.47
2019-01-09T01:10:11.175Z,98748.80
2019-01-09T01:13:47.628Z,98750.13
2019-01-09T01:17:09.042Z,98754.55
2019-01-09T01:20:46.871Z,98760.67
2019-01-09T01:24:11.362Z,98754.89
2019-01-09T01:27:40.359Z,98760.30
2019-01-09T01:31:27.362Z,98766.42
2019-01-09T01:34:56.653Z,98759.60
2019-01-09T01:38:40.653Z,98767.14
2019-01-09T01:42:01.165Z,98764.88
2019-01-09T01:45:23.984Z,98768.00
2019-01-09T01:48:51.953Z,98764.27
2019-01-09T01:52:44.257Z,98761.63
2019-01-09T01:56:37.866Z,98765.84
2019-01-09T01:59:50.274Z,98783.73
2019-01-09T02:03:16.612Z,98776.16
2019-01-09T02:06:47.852Z,98771.11
2019-01-09T02:10:14.211Z,98763.48
2019-01-09T02:13:32.649Z,98780.47
2019-01-09T02:17:13.736Z,98781.44
2019-01-09T02:21:08.724Z,98778.20
2019-01-09T02:24:50.660Z,98774.49
2019-01-09T02:28:31.234Z,98784.80
2019-01-09T02:32:07.577Z,98782.75
2019-01-09T02:35:11.187Z,98787.44
2019-01-09T02:38:14.788Z,98776.16
2019-01-09T02:41:18.238Z,98786.71
2019-01-09T02:44:21.690Z,98785.74
2019-01-09T02:47:25.200Z,98788.38
2019-01-09T02:50:28.694Z,98784.80
2019-01-09T02:53:32.137Z,98780.62
2019-01-09T02:56:35.593Z,98785.74
2019-01-09T02:59:39.092Z,98778.80
2019-01-09T03:02:42.603Z,98778.67
2019-01-09T03:05:46.098Z,98776.89
2019-01-09T03:08:49.799Z,98773.87
2019-01-09T03:11:53.431Z,98780.62
2019-01-09T03:14:56.930Z,98776.16
2019-01-09T03:18:00.402Z,98775.47
2019-01-09T03:21:04.934Z,98780.74
2019-01-09T03:24:08.435Z,98777.34
2019-01-09T03:27:11.924Z,98781.64
2019-01-09T03:30:15.446Z,98773.04
2019-01-09T03:33:18.949Z,98774.83
2019-01-09T03:36:22.442Z,98780.22
2019-01-09T03:39:25.875Z,98778.44
2019-01-09T03:42:29.310Z,98779.25
2019-01-09T03:45:32.929Z,98774.95
2019-01-09T03:48:36.452Z,98776.27
2019-01-09T03:51:39.935Z,98780.22
2019-01-09T03:54:43.436Z,98775.92
2019-01-09T03:57:46.968Z,98785.50
2019-01-09T04:00:50.480Z,98781.89
2019-01-09T04:03:55.394Z,98788.13
2019-01-09T04:06:59.022Z,98785.97
2019-01-09T04:10:02.593Z,98789.80
2019-01-09T04:13:07.115Z,98787.16
2019-01-09T04:16:16.346Z,98782.73
2019-01-09T04:19:19.849Z,98789.80
2019-01-09T04:22:23.331Z,98789.21
2019-01-09T04:25:26.851Z,98796.78
2019-01-09T04:28:30.334Z,98797.36
2019-01-09T04:31:34.906Z,98795.70
2019-01-09T04:34:38.380Z,98802.17
2019-01-09T04:37:41.886Z,98791.86
2019-01-09T04:40:47.553Z,98794.38
2019-01-09T04:43:50.704Z,98800.62
2019-01-09T04:46:54.140Z,98801.95
2019-01-09T04:49:57.716Z,98797.61
2019-01-09T04:53:02.237Z,98801.56
2019-01-09T04:56:05.736Z,98799.90
2019-01-09T04:59:11.305Z,98799.42
2019-01-09T05:02:14.802Z,98803.50
2019-01-09T05:05:18.360Z,98808.78
2019-01-09T05:08:21.999Z,98811.41
2019-01-09T05:11:25.445Z,98811.03
2019-01-09T05:14:28.992Z,98816.30
2019-01-09T05:17:32.505Z,98820.64
2019-01-09T05:20:36.088Z,98819.67
2019-01-09T05:23:39.703Z,98817.63
2019-01-09T05:26:43.210Z,98818.01
2019-01-09T05:29:46.718Z,98824.59
2019-01-09T05:32:50.145Z,98829.25
2019-01-09T05:35:53.609Z,98823.62
2019-01-09T05:38:57.217Z,98832.86
2019-01-09T05:42:00.812Z,98835.15
2019-01-09T05:45:04.416Z,98833.83
2019-01-09T05:48:07.918Z,98838.98
2019-01-09T05:51:12.452Z,98843.76
2019-01-09T05:54:15.945Z,98842.09
2019-01-09T05:57:19.476Z,98850.00
2019-01-09T06:00:22.950Z,98853.95
2019-01-09T06:03:26.458Z,98862.22
2019-01-09T06:06:30.996Z,98861.52
2019-01-09T06:09:35.498Z,98857.91
2019-01-09T06:12:38.993Z,98868.46
2019-01-09T06:15:43.539Z,98872.19
2019-01-09T06:18:46.993Z,98879.25
2019-01-09T06:21:50.524Z,98883.55
2019-01-09T06:24:55.277Z,98884.52
2019-01-09T06:27:58.757Z,98882.00
2019-01-09T06:31:02.277Z,98880.22
2019-01-09T06:34:05.765Z,98880.22
2019-01-09T06:37:09.254Z,98889.06
2019-01-09T06:40:14.830Z,98890.77
2019-01-09T06:43:18.268Z,98896.04
2019-01-09T06:46:25.089Z,98897.47
2019-01-09T06:49:29.634Z,98902.63
2019-01-09T06:52:33.173Z,98904.30
2019-01-09T06:55:36.839Z,98913.18
2019-01-09T06:58:40.248Z,98912.67
2019-01-09T07:01:43.694Z,98918.45
2019-01-09T07:04:47.130Z,98920.70
2019-01-09T07:07:51.631Z,98927.69
2019-01-09T07:10:55.147Z,98930.20
2019-01-09T07:13:58.658Z,98930.32
2019-01-09T07:17:02.150Z,98936.30
2019-01-09T07:20:05.752Z,98933.77
2019-01-09T07:23:09.237Z,98943.86
2019-01-09T07:26:12.845Z,98947.81
2019-01-09T07:29:16.353Z,98948.66
2019-01-09T07:32:19.858Z,98951.19
2019-01-09T07:35:23.276Z,98951.42
2019-01-09T07:38:26.725Z,98959.91
2019-01-09T07:41:30.352Z,98958.48
2019-01-09T07:44:35.084Z,98963.28
2019-01-09T07:47:38.584Z,98961.11
2019-01-09T07:50:42.091Z,98960.27
2019-01-09T07:53:46.647Z,98965.19
2019-01-09T07:56:51.712Z,98963.98
2019-01-09T07:59:55.241Z,98968.44
2019-01-09T08:02:58.744Z,98961.84
2019-01-09T08:06:02.182Z,98967.70
2019-01-09T08:09:06.812Z,98974.64
2019-01-09T08:12:10.276Z,98978.98
2019-01-09T08:15:13.769Z,98978.13
2019-01-09T08:18:17.278Z,98973.71
2019-01-09T08:21:22.824Z,98979.80
2019-01-09T08:24:27.362Z,98988.45
2019-01-09T08:27:30.853Z,98987.59
2019-01-09T08:30:35.374Z,98997.18
2019-01-09T08:33:38.881Z,98999.47
2019-01-09T08:36:42.378Z,99006.91
2019-01-09T08:39:45.978Z,99005.09
2019-01-09T08:42:50.641Z,99010.64
2019-01-09T08:45:54.102Z,99016.38
2019-01-09T08:48:57.611Z,99024.28
2019-01-09T08:52:01.139Z,99023.44
2019-01-09T08:55:05.128Z,99024.64
2019-01-09T08:58:08.753Z,99032.66
2019-01-09T09:01:12.249Z,99031.34
2019-01-09T09:04:15.721Z,99035.80
2019-01-09T09:07:20.258Z,99037.12
2019-01-09T09:10:23.762Z,99035.80
2019-01-09T09:13:38.321Z,99043.72
2019-01-09T09:16:42.890Z,99040.34
2019-01-09T09:19:46.478Z,99042.39
2019-01-09T09:22:50.046Z,99043.94
2019-01-09T09:25:53.544Z,99043.20
2019-01-09T09:29:03.857Z,99044.91
2019-01-09T09:32:13.546Z,99043.59
2019-01-09T09:35:16.932Z,99046.81
2019-01-09T09:38:21.003Z,99046.69
2019-01-09T09:41:24.572Z,99042.38
2019-01-09T09:44:28.075Z,99044.17
2019-01-09T09:47:31.570Z,99044.91
2019-01-09T09:50:35.148Z,99052.93
2019-01-09T09:53:38.784Z,99050.19
2019-01-09T09:56:42.404Z,99056.39
2019-01-09T09:59:46.023Z,99049.80
2019-01-09T10:02:49.492Z,99054.95
2019-01-09T10:05:53.347Z,99064.69
2019-01-09T10:08:56.929Z,99062.05
2019-01-09T10:12:00.393Z,99070.31
2019-01-09T10:15:05.669Z,99059.77
2019-01-09T10:18:09.328Z,99063.72
2019-01-09T10:21:12.935Z,99071.63
2019-01-09T10:24:16.443Z,99070.31
2019-01-09T10:27:20.045Z,99076.29
2019-01-09T10:30:23.651Z,99071.63
2019-01-09T10:33:27.148Z,99075.59
2019-01-09T10:36:30.646Z,99074.38
2019-01-09T10:39:36.206Z,99082.41
2019-01-09T10:42:39.723Z,99076.66
2019-01-09T10:45:43.219Z,99088.89
2019-01-09T10:48:47.736Z,99082.41
2019-01-09T10:51:52.262Z,99082.41
2019-01-09T10:54:55.793Z,99089.73
2019-01-09T10:57:59.271Z,99090.31
2019-01-09T11:01:02.777Z,99083.72
2019-01-09T11:04:06.260Z,99083.72
2019-01-09T11:07:09.759Z,99090.31
2019-01-09T11:10:14.327Z,99085.78
2019-01-09T11:13:17.755Z,99088.89
2019-01-09T11:16:21.293Z,99083.96
2019-01-09T11:19:24.781Z,99075.81
2019-01-09T11:22:29.326Z,99081.44
2019-01-09T11:25:33.866Z,99084.08
2019-01-09T11:28:37.339Z,99086.25
2019-01-09T11:31:40.789Z,99088.42
2019-01-09T11:34:45.369Z,99089.62
2019-01-09T11:37:48.873Z,99091.19
2019-01-09T11:40:53.390Z,99091.89
2019-01-09T11:43:56.928Z,99093.48
2019-01-09T11:47:00.384Z,99094.19
2019-01-09T11:50:06.053Z,99096.47
2019-01-09T11:53:09.740Z,99098.75
2019-01-09T11:56:13.460Z,99102.95
2019-01-09T11:59:17.192Z,99105.23
2019-01-09T12:02:22.120Z,99112.18
2019-01-09T12:05:25.910Z,99113.39
2019-01-09T12:08:29.522Z,99111.10
2019-01-09T12:11:33.105Z,99113.73
2019-01-09T12:14:36.556Z,99111.45
2019-01-09T12:17:40.141Z,99121.08
2019-01-09T12:20:43.640Z,99107.50
2019-01-09T12:23:50.221Z,99120.22
2019-01-09T12:26:54.724Z,99117.58
2019-01-09T12:29:58.338Z,99130.77
2019-01-09T12:33:02.052Z,99128.98
2019-01-09T12:36:05.733Z,99134.18
2019-01-09T12:39:13.306Z,99143.41
2019-01-09T12:42:14.697Z,99148.27
2019-01-09T12:45:18.206Z,99154.40
2019-01-09T12:48:21.705Z,99155.28
2019-01-09T12:51:25.292Z,99159.59
2019-01-09T12:54:28.954Z,99165.58
2019-01-09T12:57:32.405Z,99168.22
2019-01-09T13:00:35.970Z,99175.55
2019-01-09T13:03:39.614Z,99171.59
2019-01-09T13:06:43.206Z,99175.44
2019-01-09T13:09:46.937Z,99188.16
2019-01-09T13:12:52.641Z,99196.78
2019-01-09T13:15:55.853Z,99194.89
2019-01-09T13:19:00.403Z,99202.06
2019-01-09T13:22:03.868Z,99201.48
2019-01-09T13:25:08.212Z,99200.74
2019-01-09T13:28:12.158Z,99209.40
2019-01-09T13:31:16.633Z,99213.36
2019-01-09T13:34:20.257Z,99219.09
2019-01-09T13:37:23.926Z,99221.27
2019-01-09T13:40:27.676Z,99222.20
2019-01-09T13:43:31.282Z,99220.30
2019-01-09T13:46:34.858Z,99222.37
2019-01-09T13:49:39.492Z,99216.70
2019-01-09T13:52:43.077Z,99218.98
2019-01-09T13:55:46.779Z,99219.73
2019-01-09T13:58:50.455Z,99221.98
2019-01-09T14:01:53.920Z,99221.05
2019-01-09T14:04:57.487Z,99235.17
2019-01-09T14:08:01.222Z,99239.02
2019-01-09T14:11:04.829Z,99239.13
2019-01-09T14:14:08.342Z,99244.80
2019-01-09T14:17:11.875Z,99246.93
2019-01-09T14:20:15.517Z,99251.00
2019-01-09T14:23:19.132Z,99255.92
2019-01-09T14:26:24.375Z,99260.73
2019-01-09T14:29:28.982Z,99262.52
2019-01-09T14:32:32.710Z,99265.52
2019-01-09T14:35:36.422Z,99272.61
2019-01-09T14:38:40.137Z,99275.13
2019-01-09T14:41:43.737Z,99280.77
2019-01-09T14:44:47.262Z,99285.30
2019-01-09T14:47:50.718Z,99289.64
2019-01-09T14:50:55.361Z,99289.26
2019-01-09T14:53:59.029Z,99294.53
2019-01-09T14:57:02.682Z,99302.09
2019-01-09T15:00:10.231Z,99301.13
2019-01-09T15:03:13.760Z,99311.69
2019-01-09T15:06:17.276Z,99307.37
2019-01-09T15:09:20.881Z,99317.06
2019-01-09T15:12:24.458Z,99320.56
2019-01-09T15:15:28.123Z,99326.20
2019-01-09T15:18:32.698Z,99333.29
2019-01-09T15:21:37.227Z,99328.83
2019-01-09T15:24:40.779Z,99332.69
2019-01-09T15:27:44.229Z,99335.82
2019-01-09T15:30:47.969Z,99352.86
2019-01-09T15:33:51.544Z,99351.54
2019-01-09T15:36:55.136Z,99348.41
2019-01-09T15:40:05.676Z,99351.05
2019-01-09T15:43:04.094Z,99358.03
2019-01-09T15:46:07.722Z,99361.02
2019-01-09T15:49:11.223Z,99360.66
2019-01-09T15:52:14.691Z,99364.98
2019-01-09T15:55:18.329Z,99374.22
2019-01-09T15:58:22.005Z,99376.36
2019-01-09T16:01:25.813Z,99374.36
2019-01-09T16:04:29.408Z,99384.55
2019-01-09T16:07:33.041Z,99391.27
2019-01-09T16:10:36.549Z,99390.05
2019-01-09T16:13:40.024Z,99395.90
2019-01-09T16:16:43.502Z,99392.55
2019-01-09T16:19:47.143Z,99410.05
2019-01-09T16:22:50.735Z,99406.67
2019-01-09T16:25:54.240Z,99409.31
2019-01-09T16:28:58.756Z,99411.94
2019-01-09T16:32:02.257Z,99415.91
2019-01-09T16:35:06.086Z,99414.97
2019-01-09T16:38:09.673Z,99416.30
2019-01-09T16:41:13.266Z,99418.65
2019-01-09T16:44:16.937Z,99422.99
2019-01-09T16:47:20.599Z,99425.13
2019-01-09T16:50:24.291Z,99428.87
2019-01-09T16:53:27.833Z,99431.16
2019-01-09T16:56:31.302Z,99437.19
2019-01-09T16:59:34.791Z,99436.23
2019-01-09T17:02:38.291Z,99444.86
2019-01-09T17:05:41.873Z,99450.13
2019-01-09T17:08:45.602Z,99450.53
2019-01-09T17:11:50.440Z,99454.95
2019-01-09T17:14:53.929Z,99462.76
2019-01-09T17:17:57.482Z,99469.72
2019-01-09T17:21:00.952Z,99474.42
2019-01-09T17:24:04.460Z,99483.80
2019-01-09T17:27:07.966Z,99488.13
2019-01-09T17:30:20.164Z,99484.55
2019-01-09T17:33:23.741Z,99492.08
2019-01-09T17:36:27.187Z,99499.43
2019-01-09T17:39:31.784Z,99501.70
2019-01-09T17:42:35.975Z,99513.73
2019-01-09T17:45:39.831Z,99520.91
2019-01-09T17:48:44.837Z,99517.30
2019-01-09T17:51:48.477Z,99519.58
2019-01-09T17:54:52.952Z,99518.52
2019-01-09T17:57:56.897Z,99527.28
2019-01-09T18:01:01.467Z,99535.20
2019-01-09T18:04:05.125Z,99537.74
2019-01-09T18:07:09.650Z,99547.45
2019-01-09T18:10:16.218Z,99545.77
2019-01-09T18:13:19.718Z,99554.54
2019-01-09T18:16:23.342Z,99558.75
2019-01-09T18:19:26.920Z,99563.07
2019-01-09T18:22:30.485Z,99558.65
2019-01-09T18:25:34.124Z,99566.46
2019-01-09T18:28:37.630Z,99572.10
2019-01-09T18:32:18.609Z,99577.38
2019-01-09T18:35:30.080Z,99582.91
2019-01-09T18:38:45.098Z,99586.41
2019-01-09T18:42:21.049Z,99591.48
2019-01-09T18:45:36.291Z,99596.01
2019-01-09T18:49:30.085Z,99603.00
2019-01-09T18:52:50.678Z,99602.04
2019-01-09T18:55:56.230Z,99613.32
2019-01-09T18:58:59.751Z,99615.96
2019-01-09T19:02:03.506Z,99625.70
2019-01-09T19:05:07.169Z,99630.48
2019-01-09T19:08:11.690Z,99638.80
2019-01-09T19:11:15.177Z,99643.33
2019-01-09T19:14:18.671Z,99649.36
2019-01-09T19:17:22.196Z,99649.36
2019-01-09T19:20:25.682Z,99658.20
2019-01-09T19:23:29.660Z,99664.45
2019-01-09T19:26:39.157Z,99675.01
2019-01-09T19:29:43.788Z,99681.25
2019-01-09T19:32:47.319Z,99685.56
2019-01-09T19:35:51.067Z,99687.84
2019-01-09T19:38:54.672Z,99692.17
2019-01-09T19:41:58.195Z,99696.13
2019-01-09T19:45:01.742Z,99704.31
2019-01-09T19:48:05.387Z,99708.27
2019-01-09T19:51:17.423Z,99717.05
2019-01-09T19:54:16.072Z,99716.59
2019-01-09T19:57:19.570Z,99723.65
2019-01-09T20:00:24.232Z,99730.61
2019-01-09T20:03:27.802Z,99734.97
2019-01-09T20:06:31.342Z,99744.56
2019-01-09T20:09:34.883Z,99742.03
2019-01-09T20:12:38.297Z,99751.17
2019-01-09T20:15:42.919Z,99753.21
2019-01-09T20:18:46.655Z,99764.53
2019-01-09T20:21:50.242Z,99755.29
2019-01-09T20:24:53.956Z,99767.92
2019-01-09T20:27:57.498Z,99775.84
2019-01-09T20:31:01.048Z,99769.61
2019-01-09T20:34:05.007Z,99776.21
2019-01-09T20:37:08.568Z,99780.53
2019-01-09T20:40:12.224Z,99783.53
2019-01-09T20:43:15.797Z,99785.25
2019-01-09T20:46:20.362Z,99791.45
2019-01-09T20:49:23.795Z,99803.24
2019-01-09T20:52:27.496Z,99795.72
2019-01-09T20:55:31.096Z,99800.14
2019-01-09T20:58:34.761Z,99811.66
2019-01-09T21:01:38.297Z,99824.11
2019-01-09T21:04:42.942Z,99826.59
2019-01-09T21:07:46.643Z,99835.67
2019-01-09T21:10:50.137Z,99835.87
2019-01-09T21:13:53.657Z,99842.83
2019-01-09T21:16:57.145Z,99843.03
2019-01-09T21:20:00.654Z,99843.98
2019-01-09T21:23:04.239Z,99854.02
2019-01-09T21:26:07.897Z,99853.52
2019-01-09T21:29:11.382Z,99862.50
2019-01-09T21:32:14.853Z,99866.09
2019-01-09T21:35:19.375Z,99873.75
2019-01-09T21:38:22.881Z,99873.45
2019-01-09T21:41:26.316Z,99881.77
2019-01-09T21:44:29.792Z,99883.45
2019-01-09T21:47:33.342Z,99886.09
2019-01-09T21:50:36.921Z,99897.41
2019-01-09T21:53:40.433Z,99895.79
2019-01-09T21:56:43.917Z,99896.19
2019-01-09T21:59:48.481Z,99898.43
2019-01-09T22:02:51.995Z,99907.20
2019-01-09T22:05:55.443Z,99916.08
2019-01-09T22:08:58.940Z,99925.32
2019-01-09T22:12:02.883Z,99928.88
2019-01-09T22:15:08.891Z,99937.30
2019-01-09T22:18:12.335Z,99932.11
2019-01-09T22:21:15.785Z,99944.36
2019-01-09T22:24:19.225Z,99945.41
2019-01-09T22:27:22.786Z,99943.59
2019-01-09T22:30:27.918Z,99946.45
2019-01-09T22:33:31.437Z,99957.47
2019-01-09T22:36:34.860Z,99962.30
2019-01-09T22:39:38.340Z,99967.17
2019-01-09T22:42:41.867Z,99976.60
2019-01-09T22:45:45.330Z,99976.23
2019-01-09T22:48:48.799Z,99977.19
2019-01-09T22:51:52.459Z,99979.92
2019-01-09T22:54:55.938Z,99977.38
2019-01-09T22:57:59.447Z,99983.61
2019-01-09T23:01:12.250Z,99989.44
2019-01-09T23:04:15.773Z,99990.30
2019-01-09T23:07:19.246Z,99997.36
2019-01-09T23:10:22.859Z,99993.77
2019-01-09T23:13:26.370Z,100009.59
2019-01-09T23:16:29.861Z,100006.95
2019-01-09T23:19:33.367Z,100010.00
2019-01-09T23:22:36.865Z,100009.05
2019-01-09T23:25:40.362Z,100016.97
2019-01-09T23:28:43.886Z,100019.60
2019-01-09T23:31:48.388Z,100016.97
2019-01-09T23:34:52.939Z,100013.95
2019-01-09T23:37:56.404Z,100023.56
2019-01-09T23:40:59.868Z,100024.02
2019-01-09T23:44:03.443Z,100026.20
2019-01-09T23:47:07.993Z,100033.75
2019-01-09T23:50:11.487Z,100038.17
2019-01-09T23:53:18.216Z,100040.81
2019-01-09T23:56:21.675Z,100042.59
2019-01-09T23:59:25.243Z,100046.55
